createdAt,value
2018-08-17T00:00:11.582Z,6.17
2018-08-17T00:00:45.238Z,5.47
2018-08-17T00:01:18.842Z,5.20
2018-08-17T00:01:52.399Z,5.50
2018-08-17T00:02:26.136Z,5.30
2018-08-17T00:02:59.704Z,5.40
2018-08-17T00:03:33.280Z,5.78
2018-08-17T00:04:06.862Z,5.47
2018-08-17T00:04:40.497Z,5.67
2018-08-17T00:05:14.164Z,5.62
2018-08-17T00:05:47.696Z,5.30
2018-08-17T00:06:21.303Z,5.47
2018-08-17T00:06:54.838Z,5.20
2018-08-17T00:07:28.406Z,5.37
2018-08-17T00:08:01.990Z,5.50
2018-08-17T00:08:35.600Z,5.72
2018-08-17T00:09:11.233Z,5.28
2018-08-17T00:09:44.810Z,5.53
2018-08-17T00:10:18.455Z,5.17
2018-08-17T00:10:52.014Z,5.87
2018-08-17T00:11:25.601Z,5.78
2018-08-17T00:11:59.172Z,5.37
2018-08-17T00:12:32.744Z,5.40
2018-08-17T00:13:06.360Z,5.45
2018-08-17T00:13:39.897Z,5.42
2018-08-17T00:14:13.572Z,5.70
2018-08-17T00:14:47.123Z,5.80
2018-08-17T00:15:20.683Z,5.72
2018-08-17T00:15:54.193Z,5.70
2018-08-17T00:16:27.703Z,5.35
2018-08-17T00:17:01.327Z,6.10
2018-08-17T00:17:34.939Z,5.65
2018-08-17T00:18:08.954Z,5.55
2018-08-17T00:18:42.527Z,5.70
2018-08-17T00:19:16.073Z,5.72
2018-08-17T00:19:49.627Z,5.75
2018-08-17T00:20:23.189Z,5.53
2018-08-17T00:20:56.738Z,5.83
2018-08-17T00:21:30.317Z,5.33
2018-08-17T00:22:03.915Z,5.62
2018-08-17T00:22:37.509Z,5.62
2018-08-17T00:23:11.007Z,5.50
2018-08-17T00:23:44.523Z,5.42
2018-08-17T00:24:18.059Z,5.78
2018-08-17T00:24:51.655Z,5.30
2018-08-17T00:25:25.199Z,5.78
2018-08-17T00:25:58.757Z,5.55
2018-08-17T00:26:32.275Z,5.62
2018-08-17T00:27:05.874Z,5.72
2018-08-17T00:27:39.445Z,5.42
2018-08-17T00:28:13.007Z,6.05
2018-08-17T00:28:46.575Z,5.50
2018-08-17T00:29:20.167Z,5.40
2018-08-17T00:29:53.739Z,5.58
2018-08-17T00:30:27.293Z,5.60
2018-08-17T00:31:00.906Z,5.60
2018-08-17T00:31:34.449Z,5.43
2018-08-17T00:32:08.096Z,5.70
2018-08-17T00:32:41.611Z,5.20
2018-08-17T00:33:15.165Z,5.65
2018-08-17T00:33:48.991Z,5.83
2018-08-17T00:34:22.503Z,5.40
2018-08-17T00:34:56.033Z,5.83
2018-08-17T00:35:29.597Z,5.50
2018-08-17T00:36:03.252Z,5.37
2018-08-17T00:36:36.803Z,5.75
2018-08-17T00:37:10.355Z,5.45
2018-08-17T00:37:43.861Z,5.70
2018-08-17T00:38:17.407Z,5.60
2018-08-17T00:38:51.005Z,6.00
2018-08-17T00:39:24.525Z,5.40
2018-08-17T00:39:58.093Z,5.85
2018-08-17T00:40:31.643Z,5.62
2018-08-17T00:41:05.241Z,5.70
2018-08-17T00:41:39.407Z,5.72
2018-08-17T00:42:12.921Z,5.62
2018-08-17T00:42:46.483Z,5.37
2018-08-17T00:43:20.011Z,5.42
2018-08-17T00:43:53.537Z,5.50
2018-08-17T00:44:27.163Z,5.50
2018-08-17T00:45:00.795Z,5.70
2018-08-17T00:45:34.347Z,5.50
2018-08-17T00:46:08.396Z,5.30
2018-08-17T00:46:42.020Z,5.50
2018-08-17T00:47:15.625Z,5.70
2018-08-17T00:47:49.199Z,5.28
2018-08-17T00:48:22.757Z,5.95
2018-08-17T00:48:56.335Z,5.45
2018-08-17T00:49:29.843Z,5.33
2018-08-17T00:50:04.001Z,5.58
2018-08-17T00:50:37.519Z,5.53
2018-08-17T00:51:11.041Z,5.62
2018-08-17T00:51:44.555Z,5.33
2018-08-17T00:52:18.161Z,5.83
2018-08-17T00:52:51.709Z,5.28
2018-08-17T00:53:25.273Z,5.62
2018-08-17T00:53:58.863Z,5.53
2018-08-17T00:54:32.359Z,6.08
2018-08-17T00:55:06.333Z,5.45
2018-08-17T00:55:39.839Z,5.40
2018-08-17T00:56:13.405Z,5.58
2018-08-17T00:56:46.947Z,5.40
2018-08-17T00:57:20.741Z,5.90
2018-08-17T00:57:54.281Z,5.55
2018-08-17T00:58:27.805Z,5.80
2018-08-17T00:59:01.385Z,5.58
2018-08-17T00:59:34.943Z,5.50
2018-08-17T01:00:08.525Z,5.50
2018-08-17T01:00:42.043Z,5.50
2018-08-17T01:01:15.637Z,5.60
2018-08-17T01:01:49.175Z,5.65
2018-08-17T01:02:22.755Z,5.58
2018-08-17T01:02:56.285Z,5.53
2018-08-17T01:03:30.048Z,5.30
2018-08-17T01:04:03.683Z,5.70
2018-08-17T01:04:37.209Z,5.72
2018-08-17T01:05:10.867Z,5.92
2018-08-17T01:05:44.427Z,5.35
2018-08-17T01:06:18.029Z,5.45
2018-08-17T01:06:51.614Z,5.60
2018-08-17T01:07:25.210Z,5.30
2018-08-17T01:07:58.816Z,5.55
2018-08-17T01:08:32.322Z,5.60
2018-08-17T01:09:08.582Z,5.53
2018-08-17T01:09:42.113Z,5.00
2018-08-17T01:10:15.725Z,5.28
2018-08-17T01:10:49.377Z,5.70
2018-08-17T01:11:22.885Z,5.55
2018-08-17T01:11:56.413Z,5.58
2018-08-17T01:12:30.075Z,5.80
2018-08-17T01:13:07.826Z,5.22
2018-08-17T01:13:41.344Z,5.10
2018-08-17T01:14:14.959Z,5.87
2018-08-17T01:14:48.531Z,5.58
2018-08-17T01:15:22.055Z,5.65
2018-08-17T01:15:55.624Z,5.47
2018-08-17T01:16:29.158Z,6.05
2018-08-17T01:17:02.677Z,5.65
2018-08-17T01:17:36.251Z,5.35
2018-08-17T01:18:11.609Z,5.75
2018-08-17T01:18:45.152Z,5.20
2018-08-17T01:19:18.765Z,5.60
2018-08-17T01:19:52.312Z,5.80
2018-08-17T01:20:25.825Z,5.58
2018-08-17T01:20:59.441Z,5.83
2018-08-17T01:21:32.964Z,5.55
2018-08-17T01:22:06.663Z,5.50
2018-08-17T01:22:40.704Z,5.80
2018-08-17T01:23:14.242Z,5.40
2018-08-17T01:23:47.759Z,5.50
2018-08-17T01:24:21.345Z,5.67
2018-08-17T01:24:54.874Z,5.60
2018-08-17T01:25:28.500Z,5.20
2018-08-17T01:26:02.080Z,5.70
2018-08-17T01:26:35.589Z,5.80
2018-08-17T01:27:09.110Z,5.58
2018-08-17T01:27:42.640Z,5.35
2018-08-17T01:28:16.158Z,5.45
2018-08-17T01:28:49.644Z,5.60
2018-08-17T01:29:23.235Z,5.72
2018-08-17T01:29:56.813Z,5.33
2018-08-17T01:30:30.403Z,5.45
2018-08-17T01:31:03.936Z,5.62
2018-08-17T01:31:37.461Z,5.37
2018-08-17T01:32:11.013Z,5.67
2018-08-17T01:32:44.543Z,5.40
2018-08-17T01:33:18.072Z,5.60
2018-08-17T01:33:51.807Z,5.37
2018-08-17T01:34:25.353Z,5.80
2018-08-17T01:34:58.928Z,5.85
2018-08-17T01:35:32.481Z,5.80
2018-08-17T01:36:06.072Z,5.47
2018-08-17T01:36:39.608Z,5.30
2018-08-17T01:37:13.130Z,5.17
2018-08-17T01:37:46.672Z,5.28
2018-08-17T01:38:20.192Z,5.97
2018-08-17T01:38:53.785Z,5.67
2018-08-17T01:39:27.310Z,5.72
2018-08-17T01:40:00.840Z,5.62
2018-08-17T01:40:34.381Z,6.10
2018-08-17T01:41:07.884Z,5.58
2018-08-17T01:41:41.424Z,5.62
2018-08-17T01:42:15.019Z,5.50
2018-08-17T01:42:48.575Z,6.00
2018-08-17T01:43:22.091Z,5.33
2018-08-17T01:43:55.599Z,5.37
2018-08-17T01:44:29.142Z,5.95
2018-08-17T01:45:02.714Z,5.67
2018-08-17T01:45:36.240Z,5.80
2018-08-17T01:46:09.784Z,5.35
2018-08-17T01:46:43.332Z,5.58
2018-08-17T01:47:16.893Z,5.72
2018-08-17T01:47:50.416Z,5.50
2018-08-17T01:48:23.974Z,5.87
2018-08-17T01:48:57.499Z,5.30
2018-08-17T01:49:31.029Z,5.80
2018-08-17T01:50:05.190Z,5.75
2018-08-17T01:50:38.738Z,5.62
2018-08-17T01:51:12.277Z,5.80
2018-08-17T01:51:45.818Z,5.70
2018-08-17T01:52:19.348Z,5.60
2018-08-17T01:52:52.896Z,5.83
2018-08-17T01:53:26.422Z,6.03
2018-08-17T01:53:59.982Z,5.65
2018-08-17T01:54:33.508Z,5.75
2018-08-17T01:55:09.318Z,5.70
2018-08-17T01:55:42.850Z,5.53
2018-08-17T01:56:16.390Z,5.50
2018-08-17T01:56:49.918Z,5.47
2018-08-17T01:57:23.461Z,5.47
2018-08-17T01:57:57.183Z,5.50
2018-08-17T01:58:30.740Z,6.00
2018-08-17T01:59:04.314Z,5.85
2018-08-17T01:59:37.831Z,5.60
2018-08-17T02:00:11.709Z,6.17
2018-08-17T02:00:45.293Z,6.05
2018-08-17T02:01:18.988Z,5.55
2018-08-17T02:01:52.502Z,6.10
2018-08-17T02:02:26.004Z,5.75
2018-08-17T02:02:59.580Z,6.05
2018-08-17T02:03:33.102Z,5.60
2018-08-17T02:04:06.650Z,5.85
2018-08-17T02:04:40.212Z,6.03
2018-08-17T02:05:13.813Z,5.72
2018-08-17T02:05:47.398Z,5.90
2018-08-17T02:06:21.060Z,5.58
2018-08-17T02:06:54.634Z,5.70
2018-08-17T02:07:28.174Z,5.50
2018-08-17T02:08:01.698Z,5.70
2018-08-17T02:08:35.293Z,5.45
2018-08-17T02:09:10.730Z,6.28
2018-08-17T02:09:44.284Z,5.80
2018-08-17T02:10:17.880Z,5.83
2018-08-17T02:10:51.460Z,5.87
2018-08-17T02:11:24.979Z,6.20
2018-08-17T02:11:58.524Z,5.90
2018-08-17T02:12:32.053Z,5.70
2018-08-17T02:13:05.671Z,5.78
2018-08-17T02:13:39.194Z,5.92
2018-08-17T02:14:12.748Z,5.90
2018-08-17T02:14:46.339Z,5.92
2018-08-17T02:15:19.841Z,5.80
2018-08-17T02:15:53.512Z,5.97
2018-08-17T02:16:27.048Z,6.10
2018-08-17T02:17:00.579Z,5.50
2018-08-17T02:17:34.128Z,6.00
2018-08-17T02:18:07.932Z,5.70
2018-08-17T02:18:41.476Z,6.40
2018-08-17T02:19:14.985Z,5.83
2018-08-17T02:19:48.510Z,5.70
2018-08-17T02:20:22.060Z,5.65
2018-08-17T02:20:55.588Z,5.97
2018-08-17T02:21:29.156Z,6.10
2018-08-17T02:22:02.698Z,5.83
2018-08-17T02:22:36.274Z,6.20
2018-08-17T02:23:09.852Z,5.75
2018-08-17T02:23:43.358Z,5.60
2018-08-17T02:24:16.859Z,5.83
2018-08-17T02:24:50.404Z,5.87
2018-08-17T02:25:23.951Z,6.10
2018-08-17T02:25:57.581Z,5.87
2018-08-17T02:26:31.165Z,6.00
2018-08-17T02:27:04.720Z,5.90
2018-08-17T02:27:38.296Z,5.85
2018-08-17T02:28:11.828Z,5.92
2018-08-17T02:28:45.342Z,5.92
2018-08-17T02:29:18.931Z,5.92
2018-08-17T02:29:52.513Z,5.90
2018-08-17T02:30:26.050Z,6.45
2018-08-17T02:30:59.622Z,5.80
2018-08-17T02:31:33.150Z,6.08
2018-08-17T02:32:06.787Z,6.25
2018-08-17T02:32:40.277Z,5.90
2018-08-17T02:33:13.832Z,6.22
2018-08-17T02:33:47.395Z,5.85
2018-08-17T02:34:20.938Z,5.60
2018-08-17T02:34:54.480Z,5.70
2018-08-17T02:35:28.060Z,5.97
2018-08-17T02:36:01.586Z,5.90
2018-08-17T02:36:35.118Z,6.00
2018-08-17T02:37:08.696Z,5.90
2018-08-17T02:37:42.256Z,5.90
2018-08-17T02:38:15.883Z,5.85
2018-08-17T02:38:49.406Z,5.70
2018-08-17T02:39:22.917Z,6.20
2018-08-17T02:39:56.470Z,5.53
2018-08-17T02:40:30.040Z,6.03
2018-08-17T02:41:03.638Z,5.85
2018-08-17T02:41:37.168Z,6.10
2018-08-17T02:42:10.783Z,5.97
2018-08-17T02:42:44.355Z,5.78
2018-08-17T02:43:17.906Z,5.70
2018-08-17T02:43:51.447Z,5.87
2018-08-17T02:44:25.054Z,6.15
2018-08-17T02:44:58.614Z,6.10
2018-08-17T02:45:32.120Z,6.05
2018-08-17T02:46:05.680Z,5.95
2018-08-17T02:46:39.263Z,5.67
2018-08-17T02:47:12.804Z,5.78
2018-08-17T02:47:46.340Z,6.50
2018-08-17T02:48:19.900Z,6.03
2018-08-17T02:48:53.524Z,6.33
2018-08-17T02:49:27.072Z,5.85
2018-08-17T02:50:00.608Z,5.65
2018-08-17T02:50:34.155Z,5.85
2018-08-17T02:51:07.694Z,6.25
2018-08-17T02:51:41.330Z,5.72
2018-08-17T02:52:14.856Z,5.83
2018-08-17T02:52:48.418Z,6.20
2018-08-17T02:53:21.997Z,5.80
2018-08-17T02:53:55.528Z,5.78
2018-08-17T02:54:29.083Z,5.60
2018-08-17T02:55:02.653Z,5.90
2018-08-17T02:55:36.185Z,5.95
2018-08-17T02:56:09.716Z,6.08
2018-08-17T02:56:43.270Z,5.97
2018-08-17T02:57:16.780Z,5.92
2018-08-17T02:57:50.287Z,5.90
2018-08-17T02:58:23.857Z,5.78
2018-08-17T02:58:57.379Z,5.62
2018-08-17T02:59:30.893Z,6.10
2018-08-17T03:00:04.894Z,5.87
2018-08-17T03:00:38.466Z,6.15
2018-08-17T03:01:12.018Z,5.60
2018-08-17T03:01:45.576Z,5.75
2018-08-17T03:02:19.220Z,5.92
2018-08-17T03:02:52.748Z,6.05
2018-08-17T03:03:26.364Z,5.75
2018-08-17T03:03:59.886Z,6.28
2018-08-17T03:04:33.399Z,5.95
2018-08-17T03:05:06.992Z,5.90
2018-08-17T03:05:40.530Z,6.28
2018-08-17T03:06:14.110Z,6.12
2018-08-17T03:06:47.704Z,5.90
2018-08-17T03:07:21.256Z,5.83
2018-08-17T03:07:54.819Z,6.30
2018-08-17T03:08:28.359Z,5.97
2018-08-17T03:09:01.927Z,5.85
2018-08-17T03:09:35.442Z,6.00
2018-08-17T03:10:09.005Z,5.95
2018-08-17T03:10:42.500Z,6.10
2018-08-17T03:11:16.014Z,6.20
2018-08-17T03:11:49.544Z,6.58
2018-08-17T03:12:23.104Z,6.08
2018-08-17T03:12:56.673Z,5.87
2018-08-17T03:13:30.212Z,5.97
2018-08-17T03:14:04.954Z,6.33
2018-08-17T03:14:38.523Z,6.22
2018-08-17T03:15:12.125Z,6.42
2018-08-17T03:15:45.701Z,5.87
2018-08-17T03:16:19.236Z,6.20
2018-08-17T03:16:52.771Z,5.97
2018-08-17T03:17:26.328Z,6.05
2018-08-17T03:17:59.871Z,5.97
2018-08-17T03:18:33.395Z,6.20
2018-08-17T03:19:06.956Z,5.85
2018-08-17T03:19:40.534Z,6.00
2018-08-17T03:20:14.090Z,6.55
2018-08-17T03:20:47.720Z,5.87
2018-08-17T03:21:21.250Z,6.05
2018-08-17T03:21:54.782Z,6.55
2018-08-17T03:22:28.296Z,6.78
2018-08-17T03:23:01.830Z,6.33
2018-08-17T03:23:35.409Z,6.28
2018-08-17T03:24:08.952Z,6.23
2018-08-17T03:24:45.685Z,6.15
2018-08-17T03:25:19.263Z,6.28
2018-08-17T03:25:52.789Z,6.15
2018-08-17T03:26:26.300Z,6.08
2018-08-17T03:26:59.824Z,6.22
2018-08-17T03:27:33.393Z,6.47
2018-08-17T03:28:07.123Z,6.25
2018-08-17T03:28:40.646Z,6.45
2018-08-17T03:29:14.136Z,6.00
2018-08-17T03:29:47.636Z,6.37
2018-08-17T03:30:21.182Z,6.37
2018-08-17T03:30:54.792Z,6.30
2018-08-17T03:31:28.350Z,6.50
2018-08-17T03:32:01.866Z,6.33
2018-08-17T03:32:35.418Z,6.70
2018-08-17T03:33:09.360Z,6.60
2018-08-17T03:33:42.900Z,6.58
2018-08-17T03:34:16.434Z,6.20
2018-08-17T03:34:49.988Z,6.58
2018-08-17T03:35:23.566Z,6.58
2018-08-17T03:35:57.093Z,6.20
2018-08-17T03:36:30.702Z,6.30
2018-08-17T03:37:04.666Z,6.28
2018-08-17T03:37:38.138Z,6.42
2018-08-17T03:38:11.735Z,6.40
2018-08-17T03:38:45.284Z,5.80
2018-08-17T03:39:18.833Z,5.80
2018-08-17T03:39:52.394Z,6.10
2018-08-17T03:40:25.961Z,6.15
2018-08-17T03:40:59.498Z,6.08
2018-08-17T03:41:33.067Z,5.92
2018-08-17T03:42:06.803Z,6.28
2018-08-17T03:42:40.359Z,6.47
2018-08-17T03:43:13.890Z,6.50
2018-08-17T03:43:47.490Z,6.35
2018-08-17T03:44:21.009Z,6.33
2018-08-17T03:44:54.580Z,6.10
2018-08-17T03:45:28.132Z,6.05
2018-08-17T03:46:01.650Z,6.03
2018-08-17T03:46:35.218Z,6.08
2018-08-17T03:47:08.750Z,6.28
2018-08-17T03:47:42.290Z,6.62
2018-08-17T03:48:15.778Z,6.50
2018-08-17T03:48:49.287Z,6.55
2018-08-17T03:49:22.811Z,6.50
2018-08-17T03:49:56.348Z,6.72
2018-08-17T03:50:29.930Z,6.80
2018-08-17T03:51:03.508Z,6.47
2018-08-17T03:51:37.060Z,6.25
2018-08-17T03:52:10.628Z,6.42
2018-08-17T03:52:44.151Z,6.03
2018-08-17T03:53:17.713Z,6.22
2018-08-17T03:53:51.253Z,6.12
2018-08-17T03:54:24.770Z,6.85
2018-08-17T03:54:58.258Z,7.05
2018-08-17T03:55:31.772Z,6.67
2018-08-17T03:56:05.486Z,6.20
2018-08-17T03:56:39.027Z,6.60
2018-08-17T03:57:35.160Z,6.80
2018-08-17T03:58:08.678Z,6.50
2018-08-17T03:58:42.252Z,6.30
2018-08-17T03:59:15.840Z,6.17
2018-08-17T03:59:49.340Z,6.67
2018-08-17T04:00:22.902Z,6.58
2018-08-17T04:00:56.497Z,6.47
2018-08-17T04:01:30.029Z,6.65
2018-08-17T04:02:03.673Z,6.50
2018-08-17T04:02:37.201Z,6.35
2018-08-17T04:03:10.726Z,6.17
2018-08-17T04:03:44.260Z,6.58
2018-08-17T04:04:17.826Z,6.62
2018-08-17T04:04:51.368Z,6.67
2018-08-17T04:05:24.898Z,6.45
2018-08-17T04:05:58.508Z,6.65
2018-08-17T04:06:32.012Z,6.58
2018-08-17T04:07:05.592Z,5.97
2018-08-17T04:07:39.174Z,6.75
2018-08-17T04:08:12.726Z,6.83
2018-08-17T04:08:46.244Z,6.40
2018-08-17T04:09:19.792Z,6.60
2018-08-17T04:09:53.310Z,6.60
2018-08-17T04:10:26.846Z,6.47
2018-08-17T04:11:00.406Z,6.53
2018-08-17T04:11:33.893Z,6.28
2018-08-17T04:12:07.468Z,6.28
2018-08-17T04:12:40.958Z,7.08
2018-08-17T04:13:14.450Z,6.22
2018-08-17T04:13:47.964Z,6.37
2018-08-17T04:14:21.535Z,6.42
2018-08-17T04:14:55.085Z,6.42
2018-08-17T04:15:28.668Z,6.20
2018-08-17T04:16:02.124Z,6.40
2018-08-17T04:16:35.664Z,6.50
2018-08-17T04:17:09.155Z,6.25
2018-08-17T04:17:42.672Z,6.37
2018-08-17T04:18:16.230Z,6.10
2018-08-17T04:18:54.016Z,6.70
2018-08-17T04:19:27.541Z,6.47
2018-08-17T04:20:01.098Z,6.50
2018-08-17T04:20:34.630Z,6.60
2018-08-17T04:21:08.155Z,6.25
2018-08-17T04:21:41.696Z,6.50
2018-08-17T04:22:15.204Z,6.30
2018-08-17T04:22:48.812Z,6.17
2018-08-17T04:23:22.336Z,6.30
2018-08-17T04:23:55.929Z,6.35
2018-08-17T04:24:29.404Z,6.50
2018-08-17T04:25:03.034Z,6.75
2018-08-17T04:25:36.570Z,6.25
2018-08-17T04:26:10.146Z,6.40
2018-08-17T04:26:43.685Z,6.35
2018-08-17T04:27:17.182Z,6.58
2018-08-17T04:27:50.684Z,6.37
2018-08-17T04:28:24.210Z,6.12
2018-08-17T04:28:57.735Z,6.40
2018-08-17T04:29:31.274Z,6.67
2018-08-17T04:30:05.795Z,6.40
2018-08-17T04:30:39.299Z,6.30
2018-08-17T04:31:12.834Z,6.15
2018-08-17T04:31:46.333Z,6.33
2018-08-17T04:32:19.888Z,6.40
2018-08-17T04:32:53.401Z,6.28
2018-08-17T04:33:26.948Z,6.20
2018-08-17T04:34:00.480Z,6.60
2018-08-17T04:34:34.018Z,6.17
2018-08-17T04:35:07.598Z,6.25
2018-08-17T04:35:41.198Z,6.37
2018-08-17T04:36:15.036Z,6.20
2018-08-17T04:36:48.582Z,6.42
2018-08-17T04:37:22.140Z,6.20
2018-08-17T04:37:55.692Z,6.25
2018-08-17T04:38:29.197Z,5.90
2018-08-17T04:39:02.949Z,6.42
2018-08-17T04:39:36.498Z,6.35
2018-08-17T04:40:10.000Z,6.55
2018-08-17T04:40:43.476Z,6.70
2018-08-17T04:41:17.038Z,6.70
2018-08-17T04:41:50.546Z,6.10
2018-08-17T04:42:24.118Z,6.60
2018-08-17T04:42:57.710Z,6.37
2018-08-17T04:43:31.215Z,6.50
2018-08-17T04:44:04.766Z,6.90
2018-08-17T04:44:38.278Z,6.42
2018-08-17T04:45:11.868Z,6.10
2018-08-17T04:45:45.427Z,6.20
2018-08-17T04:46:19.028Z,6.25
2018-08-17T04:46:52.516Z,6.85
2018-08-17T04:47:26.044Z,6.75
2018-08-17T04:47:59.562Z,6.50
2018-08-17T04:48:33.120Z,6.45
2018-08-17T04:49:06.652Z,6.90
2018-08-17T04:49:40.190Z,6.62
2018-08-17T04:50:13.724Z,6.87
2018-08-17T04:50:47.232Z,6.60
2018-08-17T04:51:20.744Z,6.08
2018-08-17T04:51:54.275Z,6.40
2018-08-17T04:52:27.803Z,6.60
2018-08-17T04:53:01.371Z,6.60
2018-08-17T04:53:34.883Z,6.40
2018-08-17T04:54:08.487Z,6.55
2018-08-17T04:54:42.044Z,6.53
2018-08-17T04:55:15.640Z,6.62
2018-08-17T04:55:49.178Z,6.40
2018-08-17T04:56:22.684Z,6.50
2018-08-17T04:56:56.204Z,6.85
2018-08-17T04:57:29.772Z,6.80
2018-08-17T04:58:03.352Z,6.47
2018-08-17T04:58:36.948Z,6.70
2018-08-17T04:59:10.452Z,7.00
2018-08-17T04:59:43.974Z,7.00
2018-08-17T05:00:17.576Z,6.80
2018-08-17T05:00:51.176Z,6.70
2018-08-17T05:01:24.722Z,6.92
2018-08-17T05:01:58.252Z,6.70
2018-08-17T05:02:31.837Z,6.45
2018-08-17T05:03:05.433Z,6.60
2018-08-17T05:03:38.961Z,6.70
2018-08-17T05:04:12.516Z,7.10
2018-08-17T05:04:46.012Z,6.80
2018-08-17T05:05:19.538Z,6.97
2018-08-17T05:05:53.096Z,6.40
2018-08-17T05:06:26.634Z,6.83
2018-08-17T05:07:00.188Z,6.40
2018-08-17T05:07:33.697Z,7.03
2018-08-17T05:08:07.286Z,7.22
2018-08-17T05:08:40.806Z,6.75
2018-08-17T05:09:14.356Z,6.90
2018-08-17T05:09:47.876Z,6.90
2018-08-17T05:10:21.414Z,6.90
2018-08-17T05:10:54.936Z,6.62
2018-08-17T05:11:28.448Z,6.80
2018-08-17T05:12:01.956Z,6.78
2018-08-17T05:12:35.521Z,6.78
2018-08-17T05:13:09.030Z,6.72
2018-08-17T05:13:42.600Z,6.87
2018-08-17T05:14:16.166Z,6.92
2018-08-17T05:14:49.698Z,6.60
2018-08-17T05:15:23.242Z,7.03
2018-08-17T05:15:56.821Z,7.08
2018-08-17T05:16:30.365Z,7.22
2018-08-17T05:17:04.032Z,7.10
2018-08-17T05:17:37.544Z,6.92
2018-08-17T05:18:11.155Z,6.75
2018-08-17T05:18:44.684Z,6.75
2018-08-17T05:19:18.236Z,7.35
2018-08-17T05:19:51.780Z,7.33
2018-08-17T05:20:25.316Z,7.22
2018-08-17T05:20:58.826Z,7.05
2018-08-17T05:21:32.436Z,7.10
2018-08-17T05:22:06.089Z,7.17
2018-08-17T05:22:39.590Z,7.22
2018-08-17T05:23:13.110Z,7.05
2018-08-17T05:23:46.604Z,6.90
2018-08-17T05:24:20.145Z,6.60
2018-08-17T05:24:53.674Z,7.15
2018-08-17T05:25:27.337Z,6.80
2018-08-17T05:26:00.896Z,6.83
2018-08-17T05:26:34.404Z,6.80
2018-08-17T05:27:07.966Z,7.05
2018-08-17T05:27:41.476Z,7.20
2018-08-17T05:28:14.978Z,7.53
2018-08-17T05:28:48.502Z,6.60
2018-08-17T05:29:22.037Z,6.95
2018-08-17T05:29:55.544Z,6.75
2018-08-17T05:30:29.113Z,6.95
2018-08-17T05:31:02.687Z,6.58
2018-08-17T05:31:36.286Z,6.83
2018-08-17T05:32:09.818Z,7.22
2018-08-17T05:32:43.338Z,6.67
2018-08-17T05:33:16.870Z,7.10
2018-08-17T05:33:50.404Z,6.83
2018-08-17T05:34:23.976Z,7.08
2018-08-17T05:34:57.500Z,7.12
2018-08-17T05:35:31.032Z,7.33
2018-08-17T05:36:04.771Z,7.12
2018-08-17T05:36:38.241Z,7.12
2018-08-17T05:37:11.776Z,7.08
2018-08-17T05:37:45.313Z,7.33
2018-08-17T05:38:18.843Z,7.42
2018-08-17T05:38:52.370Z,7.10
2018-08-17T05:39:25.971Z,7.05
2018-08-17T05:39:59.524Z,7.20
2018-08-17T05:40:33.062Z,7.35
2018-08-17T05:41:06.789Z,7.70
2018-08-17T05:41:40.340Z,6.90
2018-08-17T05:42:13.862Z,6.62
2018-08-17T05:42:47.401Z,7.75
2018-08-17T05:43:21.144Z,7.00
2018-08-17T05:43:54.663Z,7.17
2018-08-17T05:44:28.165Z,7.03
2018-08-17T05:45:01.689Z,7.33
2018-08-17T05:45:35.275Z,7.25
2018-08-17T05:46:08.815Z,7.47
2018-08-17T05:46:42.372Z,7.37
2018-08-17T05:47:15.912Z,6.95
2018-08-17T05:47:49.438Z,7.40
2018-08-17T05:48:22.920Z,7.17
2018-08-17T05:48:56.441Z,7.00
2018-08-17T05:49:29.946Z,7.00
2018-08-17T05:50:03.956Z,7.12
2018-08-17T05:50:37.484Z,6.90
2018-08-17T05:51:11.024Z,7.22
2018-08-17T05:51:44.605Z,6.80
2018-08-17T05:52:18.108Z,7.20
2018-08-17T05:52:51.611Z,7.17
2018-08-17T05:53:25.117Z,6.87
2018-08-17T05:53:58.653Z,7.40
2018-08-17T05:54:32.132Z,7.17
2018-08-17T05:55:05.728Z,7.00
2018-08-17T05:55:39.304Z,6.87
2018-08-17T05:56:12.830Z,6.85
2018-08-17T05:56:46.472Z,7.15
2018-08-17T05:57:19.896Z,7.20
2018-08-17T05:57:53.390Z,6.97
2018-08-17T05:58:26.949Z,7.15
2018-08-17T05:59:00.526Z,7.15
2018-08-17T05:59:34.075Z,7.00
2018-08-17T06:00:09.834Z,7.00
2018-08-17T06:00:43.443Z,6.85
2018-08-17T06:01:17.564Z,6.72
2018-08-17T06:01:51.101Z,7.17
2018-08-17T06:02:24.661Z,7.17
2018-08-17T06:02:58.407Z,7.20
2018-08-17T06:03:31.951Z,7.20
2018-08-17T06:04:05.927Z,7.33
2018-08-17T06:04:39.468Z,6.70
2018-08-17T06:05:13.094Z,7.28
2018-08-17T06:05:46.643Z,7.20
2018-08-17T06:06:20.172Z,6.90
2018-08-17T06:06:53.686Z,6.65
2018-08-17T06:07:27.198Z,7.40
2018-08-17T06:08:00.723Z,6.78
2018-08-17T06:08:34.248Z,6.67
2018-08-17T06:09:08.831Z,6.85
2018-08-17T06:09:42.331Z,6.55
2018-08-17T06:10:15.887Z,7.08
2018-08-17T06:10:49.498Z,7.50
2018-08-17T06:11:23.146Z,7.33
2018-08-17T06:11:56.509Z,7.15
2018-08-17T06:12:30.079Z,7.12
2018-08-17T06:13:03.685Z,6.92
2018-08-17T06:13:37.288Z,7.25
2018-08-17T06:14:10.805Z,7.28
2018-08-17T06:14:44.905Z,7.05
2018-08-17T06:15:18.486Z,7.10
2018-08-17T06:15:52.017Z,7.00
2018-08-17T06:16:25.557Z,7.00
2018-08-17T06:16:59.205Z,6.92
2018-08-17T06:17:32.760Z,7.37
2018-08-17T06:18:06.400Z,7.20
2018-08-17T06:18:39.926Z,7.20
2018-08-17T06:19:13.529Z,7.33
2018-08-17T06:19:47.089Z,7.10
2018-08-17T06:20:20.656Z,7.20
2018-08-17T06:20:54.182Z,6.80
2018-08-17T06:21:27.710Z,7.15
2018-08-17T06:22:01.584Z,7.05
2018-08-17T06:22:35.200Z,6.87
2018-08-17T06:23:08.792Z,7.10
2018-08-17T06:23:42.363Z,6.95
2018-08-17T06:24:15.888Z,7.20
2018-08-17T06:24:50.700Z,7.15
2018-08-17T06:25:24.357Z,7.60
2018-08-17T06:25:57.923Z,6.60
2018-08-17T06:26:31.497Z,7.70
2018-08-17T06:27:05.126Z,7.28
2018-08-17T06:27:39.336Z,7.60
2018-08-17T06:28:12.914Z,7.05
2018-08-17T06:28:46.483Z,7.30
2018-08-17T06:29:20.018Z,7.30
2018-08-17T06:29:53.560Z,7.95
2018-08-17T06:30:27.095Z,7.40
2018-08-17T06:31:00.994Z,7.55
2018-08-17T06:31:34.766Z,7.62
2018-08-17T06:32:09.080Z,7.42
2018-08-17T06:32:42.864Z,7.10
2018-08-17T06:33:16.438Z,7.20
2018-08-17T06:33:50.000Z,8.20
2018-08-17T06:34:23.549Z,7.72
2018-08-17T06:34:57.094Z,7.00
2018-08-17T06:35:30.680Z,7.37
2018-08-17T06:36:04.389Z,6.90
2018-08-17T06:36:37.900Z,7.37
2018-08-17T06:37:11.567Z,7.15
2018-08-17T06:37:45.083Z,7.12
2018-08-17T06:38:18.674Z,7.30
2018-08-17T06:38:52.228Z,7.20
2018-08-17T06:39:25.803Z,7.17
2018-08-17T06:39:59.288Z,7.33
2018-08-17T06:40:32.796Z,7.35
2018-08-17T06:41:06.534Z,7.45
2018-08-17T06:41:40.140Z,7.33
2018-08-17T06:42:13.680Z,7.20
2018-08-17T06:42:47.229Z,7.17
2018-08-17T06:43:20.806Z,7.20
2018-08-17T06:43:54.346Z,7.00
2018-08-17T06:44:27.880Z,7.65
2018-08-17T06:45:01.805Z,7.63
2018-08-17T06:45:35.444Z,7.55
2018-08-17T06:46:09.066Z,7.40
2018-08-17T06:46:42.615Z,6.95
2018-08-17T06:47:16.187Z,6.85
2018-08-17T06:47:49.767Z,7.30
2018-08-17T06:48:23.263Z,7.20
2018-08-17T06:48:56.785Z,7.30
2018-08-17T06:49:30.334Z,6.50
2018-08-17T06:50:05.115Z,6.25
2018-08-17T06:50:38.726Z,6.72
2018-08-17T06:51:12.219Z,6.28
2018-08-17T06:51:45.772Z,6.40
2018-08-17T06:52:19.360Z,6.40
2018-08-17T06:52:52.883Z,6.22
2018-08-17T06:53:26.476Z,6.37
2018-08-17T06:54:00.029Z,6.30
2018-08-17T06:54:33.574Z,6.53
2018-08-17T06:55:09.542Z,6.40
2018-08-17T06:55:43.090Z,6.80
2018-08-17T06:56:16.640Z,6.37
2018-08-17T06:56:50.168Z,6.30
2018-08-17T06:57:23.906Z,6.45
2018-08-17T06:57:57.514Z,6.35
2018-08-17T06:58:31.057Z,6.30
2018-08-17T06:59:05.112Z,6.25
2018-08-17T06:59:38.636Z,5.65
2018-08-17T07:00:14.966Z,5.65
2018-08-17T07:00:48.468Z,6.28
2018-08-17T07:01:22.006Z,6.00
2018-08-17T07:01:55.514Z,5.90
2018-08-17T07:02:29.101Z,6.28
2018-08-17T07:03:02.729Z,6.10
2018-08-17T07:03:36.277Z,5.90
2018-08-17T07:04:09.838Z,5.87
2018-08-17T07:04:43.442Z,5.70
2018-08-17T07:05:17.030Z,5.75
2018-08-17T07:05:50.625Z,6.20
2018-08-17T07:06:24.246Z,5.87
2018-08-17T07:06:57.840Z,6.20
2018-08-17T07:07:31.393Z,5.80
2018-08-17T07:08:05.023Z,5.90
2018-08-17T07:08:38.554Z,5.72
2018-08-17T07:09:12.118Z,5.97
2018-08-17T07:09:45.674Z,5.95
2018-08-17T07:10:19.247Z,6.22
2018-08-17T07:10:52.813Z,5.83
2018-08-17T07:11:26.365Z,5.65
2018-08-17T07:11:59.935Z,5.45
2018-08-17T07:12:33.468Z,6.20
2018-08-17T07:13:07.016Z,5.42
2018-08-17T07:13:40.561Z,5.55
2018-08-17T07:14:14.095Z,5.47
2018-08-17T07:14:47.693Z,5.12
2018-08-17T07:15:21.247Z,5.05
2018-08-17T07:15:54.838Z,5.30
2018-08-17T07:16:28.421Z,5.12
2018-08-17T07:17:01.911Z,5.45
2018-08-17T07:17:35.701Z,5.15
2018-08-17T07:18:09.533Z,4.80
2018-08-17T07:18:43.057Z,5.00
2018-08-17T07:19:16.585Z,5.08
2018-08-17T07:19:50.140Z,5.10
2018-08-17T07:20:23.673Z,4.92
2018-08-17T07:20:57.217Z,5.00
2018-08-17T07:21:30.775Z,4.72
2018-08-17T07:22:04.392Z,4.95
2018-08-17T07:22:38.017Z,4.85
2018-08-17T07:23:11.542Z,4.83
2018-08-17T07:23:45.083Z,5.10
2018-08-17T07:24:18.603Z,5.28
2018-08-17T07:24:52.343Z,5.03
2018-08-17T07:25:25.916Z,4.62
2018-08-17T07:25:59.473Z,4.87
2018-08-17T07:26:33.010Z,4.90
2018-08-17T07:27:06.968Z,4.85
2018-08-17T07:27:40.541Z,4.67